createdAt,value
2023-05-09T00:01:53.398Z,6.23
2023-05-09T00:06:55.555Z,6.17
2023-05-09T00:11:57.635Z,6.11
2023-05-09T00:17:00.332Z,6.07
2023-05-09T00:22:02.515Z,5.98
2023-05-09T00:27:04.806Z,5.87
2023-05-09T00:32:07.031Z,5.72
2023-05-09T00:37:09.393Z,5.57
2023-05-09T00:42:11.668Z,5.47
2023-05-09T00:47:13.848Z,5.42
2023-05-09T00:52:17.154Z,5.31
2023-05-09T00:57:19.445Z,5.21
2023-05-09T01:02:21.847Z,5.11
2023-05-09T01:07:42.965Z,5.00
2023-05-09T01:12:58.538Z,4.92
2023-05-09T01:18:16.193Z,4.86
2023-05-09T01:23:43.684Z,4.83
2023-05-09T01:29:23.457Z,4.78
2023-05-09T01:34:30.353Z,4.72
2023-05-09T01:39:34.170Z,4.64
2023-05-09T01:44:40.760Z,4.58
2023-05-09T01:49:44.377Z,4.50
2023-05-09T01:54:48.020Z,4.46
2023-05-09T01:59:51.112Z,4.42
2023-05-09T02:04:56.772Z,4.35
2023-05-09T02:10:00.205Z,4.28
2023-05-09T02:15:02.570Z,4.23
2023-05-09T02:20:05.576Z,4.17
2023-05-09T02:25:08.739Z,4.07
2023-05-09T02:30:24.695Z,4.02
2023-05-09T02:35:28.555Z,3.99
2023-05-09T02:40:30.899Z,3.93
2023-05-09T02:45:33.599Z,3.87
2023-05-09T02:50:37.820Z,3.84
2023-05-09T02:55:40.014Z,3.80
2023-05-09T03:00:42.806Z,3.78
2023-05-09T03:05:45.196Z,3.84
2023-05-09T03:10:47.486Z,3.84
2023-05-09T03:15:49.685Z,3.85
2023-05-09T03:20:51.850Z,3.91
2023-05-09T03:25:53.934Z,4.00
2023-05-09T03:30:56.122Z,4.10
2023-05-09T03:35:58.405Z,4.19
2023-05-09T03:41:00.487Z,4.31
2023-05-09T03:46:02.564Z,4.42
2023-05-09T03:51:04.765Z,4.54
2023-05-09T03:56:08.283Z,4.72
2023-05-09T04:01:10.350Z,4.87
2023-05-09T04:06:12.640Z,5.06
2023-05-09T04:11:15.343Z,5.26
2023-05-09T04:16:17.557Z,5.48
2023-05-09T04:21:19.809Z,5.72
2023-05-09T04:26:22.196Z,5.96
2023-05-09T04:31:26.131Z,6.20
2023-05-09T04:36:33.427Z,6.47
2023-05-09T04:41:35.611Z,6.75
2023-05-09T04:46:37.775Z,7.02
2023-05-09T04:51:40.285Z,7.29
2023-05-09T04:56:42.709Z,7.59
2023-05-09T05:01:45.228Z,7.86
2023-05-09T05:06:47.352Z,8.16
2023-05-09T05:11:59.570Z,8.43
2023-05-09T05:17:04.112Z,8.70
2023-05-09T05:22:06.310Z,8.98
2023-05-09T05:27:08.348Z,9.28
2023-05-09T05:32:10.803Z,9.57
2023-05-09T05:37:13.151Z,9.83
2023-05-09T05:42:15.151Z,10.14
2023-05-09T05:47:17.219Z,10.43
2023-05-09T05:52:19.807Z,10.70
2023-05-09T05:57:22.103Z,10.96
2023-05-09T06:02:24.311Z,11.26
2023-05-09T06:07:27.275Z,11.55
2023-05-09T06:12:29.470Z,11.81
2023-05-09T06:17:31.689Z,12.05
2023-05-09T06:22:33.934Z,12.30
2023-05-09T06:27:36.021Z,12.54
2023-05-09T06:32:38.328Z,12.82
2023-05-09T06:37:40.484Z,13.09
2023-05-09T06:42:42.776Z,13.31
2023-05-09T06:47:45.204Z,13.57
2023-05-09T06:52:48.061Z,13.81
2023-05-09T06:57:50.558Z,14.04
2023-05-09T07:02:52.766Z,14.28
2023-05-09T07:07:55.664Z,14.46
2023-05-09T07:12:58.178Z,14.68
2023-05-09T07:18:00.459Z,14.86
2023-05-09T07:23:03.656Z,15.04
2023-05-09T07:28:06.656Z,15.23
2023-05-09T07:33:08.944Z,15.39
2023-05-09T07:38:11.139Z,15.59
2023-05-09T07:43:13.495Z,15.70
2023-05-09T07:48:15.610Z,15.79
2023-05-09T07:53:17.859Z,15.94
2023-05-09T07:58:20.045Z,16.01
2023-05-09T08:03:22.288Z,16.09
2023-05-09T08:08:24.643Z,16.23
2023-05-09T08:13:26.837Z,16.32
2023-05-09T08:18:29.088Z,16.32
2023-05-09T08:23:31.278Z,16.32
2023-05-09T08:28:33.366Z,16.40
2023-05-09T08:33:35.753Z,16.48
2023-05-09T08:38:40.082Z,16.59
2023-05-09T08:43:43.085Z,16.72
2023-05-09T08:48:45.475Z,16.86
2023-05-09T08:53:47.866Z,16.96
2023-05-09T08:58:51.177Z,17.05
2023-05-09T09:03:53.662Z,17.10
2023-05-09T09:08:58.530Z,17.19
2023-05-09T09:14:06.394Z,17.24
2023-05-09T09:19:12.614Z,17.27
2023-05-09T09:24:21.146Z,17.33
2023-05-09T09:29:24.251Z,17.39
2023-05-09T09:34:26.432Z,17.43
2023-05-09T09:39:28.615Z,17.42
2023-05-09T09:44:30.799Z,17.49
2023-05-09T09:49:32.986Z,17.65
2023-05-09T09:54:35.175Z,17.81
2023-05-09T09:59:37.353Z,18.00
2023-05-09T10:04:43.531Z,18.02
2023-05-09T10:09:46.122Z,18.10
2023-05-09T10:14:48.525Z,18.16
2023-05-09T10:19:51.117Z,18.21
2023-05-09T10:25:02.353Z,18.41
2023-05-09T10:30:10.636Z,18.58
2023-05-09T10:35:16.736Z,18.66
2023-05-09T10:40:19.602Z,18.65
2023-05-09T10:45:22.520Z,18.69
2023-05-09T10:50:25.580Z,18.72
2023-05-09T10:55:39.470Z,18.77
2023-05-09T11:00:42.398Z,18.78
2023-05-09T11:05:45.471Z,18.96
2023-05-09T11:10:48.273Z,19.07
2023-05-09T11:16:03.318Z,19.25
2023-05-09T11:21:11.383Z,19.30
2023-05-09T11:26:15.518Z,19.30
2023-05-09T11:31:18.912Z,19.41
2023-05-09T11:36:32.996Z,19.44
2023-05-09T11:41:44.138Z,19.54
2023-05-09T11:46:47.713Z,19.55
2023-05-09T11:51:49.992Z,19.65
2023-05-09T11:56:52.171Z,19.73
2023-05-09T12:01:54.672Z,19.89
2023-05-09T12:07:01.459Z,20.00
2023-05-09T12:12:11.827Z,20.01
2023-05-09T12:17:13.827Z,20.18
2023-05-09T12:22:15.995Z,20.21
2023-05-09T12:27:18.791Z,20.31
2023-05-09T12:32:21.384Z,20.48
2023-05-09T12:37:23.568Z,20.63
2023-05-09T12:42:29.259Z,20.81
2023-05-09T12:47:32.132Z,20.93
2023-05-09T12:52:39.758Z,20.94
2023-05-09T12:58:03.168Z,21.05
2023-05-09T13:03:05.648Z,21.18
2023-05-09T13:08:07.906Z,21.31
2023-05-09T13:13:16.050Z,21.39
2023-05-09T13:18:18.215Z,21.51
2023-05-09T13:23:21.830Z,21.65
2023-05-09T13:28:23.917Z,21.78
2023-05-09T13:33:26.727Z,21.75
2023-05-09T13:38:36.163Z,21.81
2023-05-09T13:43:40.504Z,21.98
2023-05-09T13:48:43.889Z,22.34
2023-05-09T13:53:46.411Z,24.00
2023-05-09T13:58:48.591Z,27.95
2023-05-09T14:03:50.709Z,31.91
2023-05-09T14:08:52.959Z,35.65
2023-05-09T14:13:55.665Z,38.70
2023-05-09T14:18:58.046Z,41.56
2023-05-09T14:24:00.169Z,44.28
2023-05-09T14:29:03.864Z,47.52
2023-05-09T14:34:05.839Z,50.42
2023-05-09T14:39:07.912Z,52.38
2023-05-09T14:44:10.217Z,53.33
2023-05-09T14:49:12.481Z,55.09
2023-05-09T14:54:15.227Z,55.77
2023-05-09T14:59:17.670Z,56.82
2023-05-09T15:04:19.793Z,57.42
2023-05-09T15:09:22.141Z,58.01
2023-05-09T15:14:24.325Z,58.25
2023-05-09T15:19:30.620Z,58.42
2023-05-09T15:24:32.900Z,58.16
2023-05-09T15:29:34.849Z,57.60
2023-05-09T15:34:37.533Z,57.17
2023-05-09T15:39:45.032Z,57.21
2023-05-09T15:44:47.064Z,56.65
2023-05-09T15:49:49.150Z,56.46
2023-05-09T15:54:51.256Z,56.65
2023-05-09T15:59:54.734Z,56.27
2023-05-09T16:04:56.717Z,55.69
2023-05-09T16:09:58.800Z,54.91
2023-05-09T16:15:01.407Z,54.04
2023-05-09T16:20:04.002Z,53.38
2023-05-09T16:25:06.894Z,52.51
2023-05-09T16:30:09.698Z,51.66
2023-05-09T16:35:12.076Z,51.28
2023-05-09T16:40:14.926Z,51.05
2023-05-09T16:45:17.264Z,50.18
2023-05-09T16:50:19.653Z,49.33
2023-05-09T16:55:21.843Z,48.28
2023-05-09T17:00:24.129Z,47.78
2023-05-09T17:05:26.213Z,46.74
2023-05-09T17:10:28.287Z,45.67
2023-05-09T17:15:30.783Z,44.99
2023-05-09T17:20:32.970Z,43.93
2023-05-09T17:25:35.277Z,42.66
2023-05-09T17:30:39.038Z,41.43
2023-05-09T17:35:41.157Z,40.19
2023-05-09T17:40:43.953Z,39.11
2023-05-09T17:45:46.318Z,37.64
2023-05-09T17:50:49.449Z,36.14
2023-05-09T17:55:51.735Z,34.58
2023-05-09T18:00:54.843Z,32.21
2023-05-09T18:05:57.243Z,29.81
2023-05-09T18:10:59.408Z,27.95
2023-05-09T18:16:02.226Z,26.20
2023-05-09T18:21:05.011Z,24.34
2023-05-09T18:26:08.088Z,22.69
2023-05-09T18:31:11.941Z,21.20
2023-05-09T18:36:14.750Z,19.81
2023-05-09T18:41:17.025Z,18.54
2023-05-09T18:46:22.134Z,17.42
2023-05-09T18:51:25.182Z,16.50
2023-05-09T18:56:27.363Z,15.70
2023-05-09T19:01:29.633Z,15.03
2023-05-09T19:06:32.066Z,14.45
2023-05-09T19:11:34.234Z,13.90
2023-05-09T19:16:36.433Z,13.45
2023-05-09T19:21:44.739Z,13.04
2023-05-09T19:26:48.513Z,12.70
2023-05-09T19:31:50.744Z,12.39
2023-05-09T19:36:53.032Z,12.11
2023-05-09T19:41:58.346Z,11.84
2023-05-09T19:47:04.811Z,11.60
2023-05-09T19:52:07.099Z,11.39
2023-05-09T19:57:10.070Z,11.19
2023-05-09T20:02:12.460Z,11.02
2023-05-09T20:07:15.977Z,10.84
2023-05-09T20:12:18.218Z,10.64
2023-05-09T20:17:20.338Z,10.44
2023-05-09T20:22:22.531Z,10.27
2023-05-09T20:27:25.933Z,10.15
2023-05-09T20:32:27.918Z,9.98
2023-05-09T20:37:30.513Z,9.80
2023-05-09T20:42:33.006Z,9.65
2023-05-09T20:47:35.119Z,9.53
2023-05-09T20:52:37.369Z,9.43
2023-05-09T20:57:40.273Z,9.34
2023-05-09T21:02:43.635Z,9.22
2023-05-09T21:07:45.771Z,9.15
2023-05-09T21:12:48.118Z,9.06
2023-05-09T21:17:50.564Z,8.96
2023-05-09T21:22:52.728Z,8.83
2023-05-09T21:27:56.037Z,8.69
2023-05-09T21:32:58.373Z,8.55
2023-05-09T21:38:00.613Z,8.44
2023-05-09T21:43:03.410Z,8.32
2023-05-09T21:48:06.055Z,8.24
2023-05-09T21:53:08.396Z,8.16
2023-05-09T21:58:10.580Z,8.08
2023-05-09T22:03:13.084Z,8.04
2023-05-09T22:08:15.455Z,7.94
2023-05-09T22:13:18.093Z,7.91
2023-05-09T22:18:20.234Z,7.85
2023-05-09T22:23:22.317Z,7.81
2023-05-09T22:28:24.499Z,7.78
2023-05-09T22:33:27.093Z,7.73
2023-05-09T22:38:29.893Z,7.68
2023-05-09T22:43:38.857Z,7.64
2023-05-09T22:48:41.945Z,7.61
2023-05-09T22:53:44.025Z,7.58
2023-05-09T22:58:46.212Z,7.54
2023-05-09T23:03:48.392Z,7.50
2023-05-09T23:08:50.477Z,7.46
2023-05-09T23:13:52.966Z,7.38
2023-05-09T23:18:55.151Z,7.29
2023-05-09T23:23:57.642Z,7.20
2023-05-09T23:28:59.934Z,7.10
2023-05-09T23:34:02.216Z,7.02
2023-05-09T23:39:04.502Z,6.93
2023-05-09T23:44:07.195Z,6.84
2023-05-09T23:49:09.281Z,6.78
2023-05-09T23:54:11.460Z,6.71
2023-05-09T23:59:13.751Z,6.63
